Time;durP1;ratioP1;P1;durP2;ratioP2;P2;SDS_P1;SDS_P2;PMS_P1;PMS_P2;Temp;Humidity;BMP_temperature;BMP_pressure;BME280_temperature;BME280_humidity;BME280_pressure;Samples;Min_cycle;Max_cycle;Signal;HPM_P1;HPM_P2
2023/07/02 00:00:31;;;;;;;2.37;2.10;;;21.50;36.60;;;;;;10422209;28;20239;-66
2023/07/02 00:05:34;;;;;;;2.30;2.13;;;21.50;35.90;;;;;;10433596;28;20252;-66
2023/07/02 00:10:38;;;;;;;2.40;2.20;;;21.50;36.10;;;;;;10428587;28;20279;-66
2023/07/02 00:15:42;;;;;;;3.77;2.13;;;21.50;36.90;;;;;;10426550;28;20235;-66
2023/07/02 00:20:46;;;;;;;2.90;2.40;;;21.50;36.20;;;;;;10439354;28;20228;-66
2023/07/02 00:25:50;;;;;;;3.23;2.30;;;21.50;36.50;;;;;;10440578;28;20275;-66
2023/07/02 00:30:54;;;;;;;2.60;2.40;;;21.50;37.20;;;;;;10432635;28;20780;-66
2023/07/02 00:35:57;;;;;;;2.30;1.90;;;21.50;36.40;;;;;;10435999;28;20232;-66
2023/07/02 00:41:02;;;;;;;2.40;2.20;;;21.60;36.50;;;;;;10439414;28;20268;-66
2023/07/02 00:46:06;;;;;;;2.50;2.30;;;21.50;37.50;;;;;;10437411;28;20214;-66
2023/07/02 00:51:11;;;;;;;3.00;2.70;;;21.50;36.80;;;;;;10430645;28;20221;-66
2023/07/02 00:56:17;;;;;;;3.60;2.40;;;21.50;37.70;;;;;;10440603;28;20214;-66
2023/07/02 01:01:21;;;;;;;2.40;2.20;;;21.50;37.80;;;;;;10436538;28;20233;-66
2023/07/02 01:06:26;;;;;;;2.67;2.33;;;21.40;37.70;;;;;;10435584;28;20320;-66
2023/07/02 01:11:33;;;;;;;2.43;2.30;;;21.40;37.70;;;;;;10430384;28;20230;-66
2023/07/02 01:16:38;;;;;;;2.73;2.53;;;21.40;38.30;;;;;;10436911;28;20307;-66
2023/07/02 01:21:43;;;;;;;2.40;2.20;;;21.30;37.60;;;;;;10432382;28;20237;-66
2023/07/02 01:26:47;;;;;;;3.73;2.20;;;21.30;37.70;;;;;;10438684;28;20230;-66
2023/07/02 01:31:50;;;;;;;3.27;2.40;;;21.30;37.60;;;;;;10425164;28;20232;-66
2023/07/02 01:36:54;;;;;;;2.20;2.10;;;21.20;37.60;;;;;;10436978;28;20232;-66
2023/07/02 01:42:09;;;;;;;3.53;2.43;;;21.20;38.60;;;;;;10431862;28;20239;-66
2023/07/02 01:47:13;;;;;;;2.30;2.10;;;21.20;39.40;;;;;;10438282;28;20228;-66
2023/07/02 01:52:18;;;;;;;2.20;2.10;;;21.20;37.90;;;;;;10433387;28;20213;-66
2023/07/02 01:57:21;;;;;;;2.50;2.33;;;21.20;39.00;;;;;;10426008;28;20229;-66
2023/07/02 02:02:24;;;;;;;2.37;2.20;;;21.20;38.30;;;;;;10429657;28;20239;-66
2023/07/02 02:07:29;;;;;;;2.83;2.40;;;21.10;38.50;;;;;;10438736;28;20724;-67
2023/07/02 02:12:32;;;;;;;3.13;2.20;;;21.20;39.60;;;;;;10430460;28;20251;-66
2023/07/02 02:17:36;;;;;;;2.37;2.20;;;21.20;38.90;;;;;;10430039;28;20231;-67
2023/07/02 02:22:40;;;;;;;2.20;2.10;;;21.20;38.30;;;;;;10436295;28;20290;-66
2023/07/02 02:27:44;;;;;;;2.50;2.30;;;21.20;38.80;;;;;;10439751;28;20633;-66
2023/07/02 02:32:49;;;;;;;2.83;2.57;;;21.10;37.90;;;;;;10429717;28;20736;-67
2023/07/02 02:37:53;;;;;;;2.80;2.47;;;20.90;37.90;;;;;;10440955;28;20234;-67
2023/07/02 02:42:56;;;;;;;2.80;2.50;;;20.80;38.70;;;;;;10423402;28;20285;-66
2023/07/02 02:48:00;;;;;;;2.43;2.23;;;20.70;37.90;;;;;;10437326;28;20252;-66
2023/07/02 02:53:04;;;;;;;2.63;2.43;;;20.60;37.90;;;;;;10439624;28;20683;-67
2023/07/02 02:58:08;;;;;;;2.70;2.50;;;20.50;38.60;;;;;;10444212;28;20234;-67
2023/07/02 03:03:11;;;;;;;2.77;2.40;;;20.40;38.40;;;;;;10430947;28;20797;-67
2023/07/02 03:08:15;;;;;;;2.40;2.20;;;20.30;38.50;;;;;;10432564;28;20238;-66
2023/07/02 03:13:18;;;;;;;2.60;2.40;;;20.30;39.50;;;;;;10433843;28;20227;-67
2023/07/02 03:18:22;;;;;;;2.40;2.20;;;20.30;39.00;;;;;;10440998;28;20237;-66
2023/07/02 03:23:26;;;;;;;2.73;2.53;;;20.20;39.20;;;;;;10428014;28;20225;-67
2023/07/02 03:28:29;;;;;;;2.60;2.40;;;20.00;40.10;;;;;;10425109;28;20252;-66
2023/07/02 03:33:33;;;;;;;4.57;2.73;;;20.10;39.70;;;;;;10426763;28;20225;-66
2023/07/02 03:38:38;;;;;;;2.50;2.30;;;20.00;39.90;;;;;;10427926;28;20263;-66
2023/07/02 03:43:42;;;;;;;3.07;2.77;;;20.00;40.20;;;;;;10424359;28;20227;-66
2023/07/02 03:48:45;;;;;;;2.47;2.27;;;20.00;39.80;;;;;;10424045;28;20240;-67
2023/07/02 03:53:49;;;;;;;2.60;2.13;;;20.00;39.70;;;;;;10422796;28;20232;-66
2023/07/02 03:58:52;;;;;;;3.93;2.30;;;20.00;40.30;;;;;;10427455;28;20247;-66
2023/07/02 04:03:57;;;;;;;2.77;2.40;;;19.90;39.80;;;;;;10425502;28;20244;-66
2023/07/02 04:09:01;;;;;;;3.13;2.60;;;19.90;40.10;;;;;;10425736;28;20311;-66
2023/07/02 04:14:05;;;;;;;2.57;2.37;;;19.80;40.50;;;;;;10427529;28;20217;-66
2023/07/02 04:19:08;;;;;;;2.60;2.40;;;19.80;40.10;;;;;;10425023;28;20221;-66
2023/07/02 04:24:12;;;;;;;2.30;2.10;;;19.70;40.20;;;;;;10422525;28;20252;-66
2023/07/02 04:29:16;;;;;;;2.37;2.17;;;19.80;40.90;;;;;;10425245;28;20243;-66
2023/07/02 04:34:21;;;;;;;3.13;2.30;;;19.80;40.20;;;;;;10422241;28;20229;-66
2023/07/02 04:39:26;;;;;;;2.50;2.30;;;19.80;40.40;;;;;;10437391;28;20233;-67
2023/07/02 04:44:30;;;;;;;2.47;2.30;;;19.80;41.00;;;;;;10429678;28;20233;-66
2023/07/02 04:49:33;;;;;;;2.37;2.17;;;19.80;40.40;;;;;;10429808;28;20229;-69
2023/07/02 04:54:37;;;;;;;2.53;2.33;;;19.80;40.20;;;;;;10430630;28;20740;-69
2023/07/02 04:59:42;;;;;;;2.60;1.90;;;19.80;40.70;;;;;;10429300;28;20310;-69
2023/07/02 05:04:45;;;;;;;2.63;2.37;;;19.90;40.40;;;;;;10428605;28;20229;-69
2023/07/02 05:09:52;;;;;;;2.20;2.10;;;19.90;40.30;;;;;;10427563;28;20225;-69
2023/07/02 05:14:55;;;;;;;2.33;2.10;;;20.00;40.90;;;;;;10435824;28;20255;-69
2023/07/02 05:19:58;;;;;;;2.90;2.23;;;20.10;40.30;;;;;;10440408;28;20343;-68
2023/07/02 05:25:03;;;;;;;2.50;2.30;;;20.30;40.30;;;;;;10435965;28;20601;-68
2023/07/02 05:30:07;;;;;;;2.80;2.17;;;20.40;40.20;;;;;;10434463;28;20344;-68
2023/07/02 05:35:11;;;;;;;3.70;2.43;;;20.40;40.00;;;;;;10427645;28;20238;-68
2023/07/02 05:40:15;;;;;;;2.23;2.03;;;20.40;40.00;;;;;;10431817;28;20230;-68
2023/07/02 05:45:20;;;;;;;2.13;2.03;;;20.50;40.40;;;;;;10435772;28;20231;-68
2023/07/02 05:50:24;;;;;;;2.73;2.23;;;20.50;40.00;;;;;;10429738;28;20251;-68
2023/07/02 05:55:28;;;;;;;2.70;2.20;;;20.60;40.20;;;;;;10439646;28;20286;-68
2023/07/02 06:00:31;;;;;;;2.50;2.30;;;20.60;40.20;;;;;;10439413;28;20316;-68
2023/07/02 06:05:35;;;;;;;2.30;2.10;;;20.70;40.10;;;;;;10435433;28;20228;-68
2023/07/02 06:10:40;;;;;;;2.40;2.20;;;20.70;39.90;;;;;;10434829;28;20257;-68
2023/07/02 06:15:43;;;;;;;3.13;2.30;;;20.70;40.20;;;;;;10427437;28;20732;-68
2023/07/02 06:20:47;;;;;;;3.73;2.00;;;20.70;39.90;;;;;;10427867;28;20237;-68
2023/07/02 06:25:58;;;;;;;2.20;2.00;;;20.70;40.00;;;;;;10435603;28;20231;-68
2023/07/02 06:31:02;;;;;;;3.17;2.20;;;20.70;40.00;;;;;;10432475;28;20735;-68
2023/07/02 06:36:05;;;;;;;2.57;1.80;;;20.70;39.60;;;;;;10427553;28;20224;-68
2023/07/02 06:41:10;;;;;;;3.93;2.20;;;20.80;39.60;;;;;;10442093;28;20229;-68
2023/07/02 06:46:13;;;;;;;3.27;2.93;;;20.80;39.40;;;;;;10432693;28;20232;-68
2023/07/02 06:51:16;;;;;;;4.00;3.60;;;20.80;38.30;;;;;;10430826;28;20603;-68
2023/07/02 06:56:21;;;;;;;5.23;3.80;;;20.80;37.70;;;;;;10410214;28;20225;-68
2023/07/02 07:01:24;;;;;;;5.27;3.73;;;20.70;37.50;;;;;;10418831;28;20229;-68
2023/07/02 07:06:27;;;;;;;4.80;4.20;;;20.60;37.60;;;;;;10415711;28;20232;-68
2023/07/02 07:11:32;;;;;;;6.83;4.67;;;20.60;37.80;;;;;;10420491;28;20870;-68
2023/07/02 07:16:35;;;;;;;5.80;3.97;;;20.50;37.80;;;;;;10422698;28;20229;-68
2023/07/02 07:21:39;;;;;;;11.73;4.30;;;20.50;37.90;;;;;;10428530;28;20235;-68
2023/07/02 07:26:45;;;;;;;4.70;4.13;;;20.40;37.90;;;;;;10420852;28;20229;-68
2023/07/02 07:31:48;;;;;;;5.03;3.87;;;20.30;38.10;;;;;;10424243;28;20269;-67
2023/07/02 07:36:51;;;;;;;5.30;4.13;;;20.20;38.40;;;;;;10421660;28;20800;-68
2023/07/02 07:41:56;;;;;;;8.47;6.40;;;20.20;38.60;;;;;;10426239;28;20603;-68
2023/07/02 07:46:59;;;;;;;11.33;8.17;;;20.10;39.20;;;;;;10418539;28;20233;-68
2023/07/02 07:52:03;;;;;;;10.83;8.80;;;19.90;38.60;;;;;;10421142;28;20220;-69
2023/07/02 07:57:08;;;;;;;9.73;7.43;;;19.70;39.00;;;;;;10426621;28;20610;-68
2023/07/02 08:02:11;;;;;;;8.83;6.30;;;19.60;40.20;;;;;;10412318;28;20224;-68
2023/07/02 08:07:15;;;;;;;5.70;5.00;;;19.50;40.20;;;;;;10414688;28;20232;-68
2023/07/02 08:12:19;;;;;;;4.97;4.43;;;19.40;40.70;;;;;;10416070;28;20319;-68
2023/07/02 08:17:23;;;;;;;5.97;4.30;;;19.40;41.50;;;;;;10417441;28;20815;-68
2023/07/02 08:22:26;;;;;;;5.97;4.97;;;19.40;41.70;;;;;;10414764;28;20269;-67
2023/07/02 08:27:31;;;;;;;10.30;6.03;;;19.50;41.60;;;;;;10420798;28;20239;-68
2023/07/02 08:32:34;;;;;;;7.37;5.67;;;19.70;41.80;;;;;;10417064;28;20809;-68
2023/07/02 08:37:37;;;;;;;9.60;6.47;;;20.00;41.50;;;;;;10417824;28;20307;-68
2023/07/02 08:42:47;;;;;;;7.37;5.90;;;20.30;41.00;;;;;;10428580;28;20226;-68
2023/07/02 08:47:53;;;;;;;9.50;6.63;;;20.50;41.70;;;;;;10418924;28;20786;-68
2023/07/02 08:52:56;;;;;;;7.50;6.13;;;20.70;40.80;;;;;;10421856;28;20261;-68
2023/07/02 08:58:01;;;;;;;9.23;6.87;;;21.00;40.80;;;;;;10415150;28;21012;-68
2023/07/02 09:03:13;;;;;;;7.40;6.60;;;21.20;39.90;;;;;;10421195;28;20220;-68
2023/07/02 09:08:24;;;;;;;9.50;7.37;;;21.40;39.50;;;;;;10420967;28;20229;-69
2023/07/02 09:13:29;;;;;;;9.10;7.13;;;21.60;39.70;;;;;;10421439;28;20229;-68
2023/07/02 09:18:32;;;;;;;8.67;7.10;;;21.80;39.00;;;;;;10425737;28;21078;-68
2023/07/02 09:23:36;;;;;;;11.87;7.57;;;21.90;38.20;;;;;;10429098;28;20715;-68
2023/07/02 09:28:40;;;;;;;9.33;7.23;;;22.00;38.30;;;;;;10427625;28;20226;-68
2023/07/02 09:33:44;;;;;;;10.47;8.07;;;22.10;38.40;;;;;;10428414;28;20235;-68
2023/07/02 09:38:48;;;;;;;9.67;7.77;;;22.20;38.40;;;;;;10430775;28;20710;-68
2023/07/02 09:43:52;;;;;;;15.17;8.10;;;22.30;38.00;;;;;;10428763;28;20230;-68
2023/07/02 09:48:56;;;;;;;8.13;7.10;;;22.40;36.80;;;;;;10422608;28;20240;-68
2023/07/02 09:53:59;;;;;;;9.27;7.70;;;22.50;36.80;;;;;;10435625;28;20748;-68
2023/07/02 09:59:04;;;;;;;8.47;7.27;;;22.80;37.20;;;;;;10430056;28;20221;-68
2023/07/02 10:04:14;;;;;;;10.70;7.27;;;23.00;37.00;;;;;;10432518;28;20235;-68
2023/07/02 10:09:17;;;;;;;11.70;7.50;;;23.30;35.90;;;;;;10427731;28;20228;-68
2023/07/02 10:14:22;;;;;;;8.67;7.30;;;23.50;36.40;;;;;;10444700;28;20222;-68
2023/07/02 10:19:25;;;;;;;10.57;7.60;;;23.80;34.80;;;;;;10436026;28;20232;-68
2023/07/02 10:24:28;;;;;;;8.73;7.40;;;23.90;34.20;;;;;;10428767;28;20311;-68
2023/07/02 10:29:33;;;;;;;9.30;7.87;;;23.90;34.60;;;;;;10428199;28;20235;-68
2023/07/02 10:34:37;;;;;;;9.00;7.50;;;23.90;34.90;;;;;;10439492;28;20224;-68
2023/07/02 10:39:40;;;;;;;8.60;7.33;;;24.00;34.10;;;;;;10427581;28;20229;-68
2023/07/02 10:44:52;;;;;;;10.27;7.37;;;24.10;34.00;;;;;;10427904;28;20240;-68
2023/07/02 10:49:55;;;;;;;9.27;7.30;;;24.10;30.70;;;;;;10430496;28;20327;-68
2023/07/02 10:54:58;;;;;;;7.87;6.30;;;24.00;32.80;;;;;;10429950;28;20597;-68
2023/07/02 11:00:08;;;;;;;8.07;7.03;;;24.10;32.50;;;;;;10440245;28;20251;-68
2023/07/02 11:05:12;;;;;;;8.23;6.60;;;24.20;30.60;;;;;;10434487;28;20239;-68
2023/07/02 11:10:19;;;;;;;7.67;6.50;;;24.40;32.20;;;;;;10420946;28;20229;-68
2023/07/02 11:15:24;;;;;;;9.27;6.47;;;24.50;29.80;;;;;;10437131;28;20290;-67
2023/07/02 11:20:35;;;;;;;8.13;6.57;;;24.70;30.00;;;;;;10432506;28;20333;-67
2023/07/02 11:25:38;;;;;;;6.47;5.77;;;24.80;30.00;;;;;;10425825;28;20236;-68
2023/07/02 11:30:47;;;;;;;8.00;6.40;;;24.90;31.80;;;;;;10426285;28;20232;-67
2023/07/02 11:35:50;;;;;;;8.70;5.87;;;25.20;30.40;;;;;;10425185;28;20225;-67
2023/07/02 11:40:54;;;;;;;6.83;6.17;;;25.40;30.00;;;;;;10438319;28;20229;-68
2023/07/02 11:45:58;;;;;;;6.30;5.70;;;25.50;29.50;;;;;;10430371;28;20327;-68
2023/07/02 11:51:01;;;;;;;8.87;5.87;;;25.50;28.90;;;;;;10427499;28;20260;-67
2023/07/02 11:56:05;;;;;;;6.57;5.73;;;25.60;29.00;;;;;;10441072;28;20228;-66
2023/07/02 12:01:09;;;;;;;6.57;5.57;;;25.70;29.30;;;;;;10433944;28;21265;-66
2023/07/02 12:06:12;;;;;;;7.27;6.33;;;25.80;29.10;;;;;;10423360;28;20224;-65
2023/07/02 12:11:15;;;;;;;7.60;6.20;;;25.90;28.50;;;;;;10428107;28;20225;-66
2023/07/02 12:16:20;;;;;;;8.13;5.83;;;26.00;29.00;;;;;;10438135;28;20233;-66
2023/07/02 12:21:23;;;;;;;6.97;6.27;;;26.00;27.90;;;;;;10444247;28;20255;-66
2023/07/02 12:26:28;;;;;;;7.47;6.40;;;26.00;27.50;;;;;;10437313;28;20840;-66
2023/07/02 12:31:33;;;;;;;7.97;6.70;;;26.10;28.00;;;;;;10427699;28;20704;-66
2023/07/02 12:36:36;;;;;;;8.90;6.37;;;26.10;26.80;;;;;;10430473;28;20232;-65
2023/07/02 12:41:39;;;;;;;8.87;7.50;;;26.10;27.10;;;;;;10424703;28;20231;-65
2023/07/02 12:46:44;;;;;;;8.03;7.23;;;26.00;27.10;;;;;;10427400;28;20229;-66
2023/07/02 12:51:47;;;;;;;8.13;7.10;;;26.00;26.80;;;;;;10430168;28;20222;-65
2023/07/02 12:56:50;;;;;;;10.57;7.73;;;26.00;27.00;;;;;;10430403;28;20312;-65
2023/07/02 13:01:55;;;;;;;8.30;7.50;;;26.10;27.00;;;;;;10438873;28;20236;-66
2023/07/02 13:06:58;;;;;;;8.23;7.23;;;26.10;26.70;;;;;;10430448;28;20261;-65
2023/07/02 13:12:01;;;;;;;11.73;10.27;;;26.20;27.40;;;;;;10434540;28;20225;-66
2023/07/02 13:17:06;;;;;;;11.20;10.07;;;26.30;26.70;;;;;;10434371;28;20257;-66
2023/07/02 13:22:10;;;;;;;12.00;9.90;;;26.40;26.50;;;;;;10433384;28;20315;-66
2023/07/02 13:27:18;;;;;;;10.40;8.83;;;26.40;26.90;;;;;;10429332;28;20311;-66
2023/07/02 13:32:23;;;;;;;10.43;9.43;;;26.40;26.10;;;;;;10428869;28;20705;-65
2023/07/02 13:37:26;;;;;;;11.90;10.43;;;26.40;26.60;;;;;;10427013;28;20251;-66
2023/07/02 13:42:29;;;;;;;11.93;10.70;;;26.40;26.60;;;;;;10440904;28;20235;-66
2023/07/02 13:47:33;;;;;;;14.00;11.40;;;26.40;26.30;;;;;;10429024;28;20236;-66
2023/07/02 13:52:37;;;;;;;14.97;12.80;;;26.50;25.80;;;;;;10430318;28;20225;-66
2023/07/02 13:57:40;;;;;;;15.20;13.27;;;26.50;26.00;;;;;;10434579;28;20314;-65
2023/07/02 14:02:45;;;;;;;18.03;14.60;;;26.50;26.20;;;;;;10441362;28;20724;-66
2023/07/02 14:07:48;;;;;;;15.60;13.93;;;26.60;25.20;;;;;;10431409;28;20231;-68
2023/07/02 14:12:52;;;;;;;15.83;14.13;;;26.60;25.50;;;;;;10441006;28;20228;-68
2023/07/02 14:17:56;;;;;;;16.80;14.03;;;26.70;25.70;;;;;;10428249;28;20743;-68
2023/07/02 14:22:59;;;;;;;17.37;14.53;;;26.80;25.40;;;;;;10433580;28;20308;-67
2023/07/02 14:28:02;;;;;;;17.53;14.90;;;26.90;25.60;;;;;;10432830;28;20221;-68
2023/07/02 14:33:07;;;;;;;16.73;15.03;;;27.00;25.30;;;;;;10439061;28;20594;-68
2023/07/02 14:38:10;;;;;;;18.20;16.30;;;27.00;25.00;;;;;;10433081;28;20308;-68
2023/07/02 14:43:13;;;;;;;19.40;16.77;;;27.10;25.10;;;;;;10427175;28;20597;-68
2023/07/02 14:48:19;;;;;;;19.17;17.17;;;27.10;24.90;;;;;;10428995;28;20233;-68
2023/07/02 14:53:22;;;;;;;17.80;16.00;;;27.10;24.20;;;;;;10436944;28;20320;-68
2023/07/02 14:58:27;;;;;;;18.17;16.20;;;27.10;24.80;;;;;;10431124;28;20572;-68
2023/07/02 15:03:31;;;;;;;18.03;16.07;;;27.20;24.90;;;;;;10431562;28;20244;-68
2023/07/02 15:08:35;;;;;;;18.43;16.43;;;27.30;24.40;;;;;;10425841;28;20705;-68
2023/07/02 15:13:38;;;;;;;17.10;15.40;;;27.40;24.70;;;;;;10431730;28;20855;-68
2023/07/02 15:18:43;;;;;;;17.97;16.13;;;27.50;24.80;;;;;;10433645;28;20731;-66
2023/07/02 15:23:46;;;;;;;21.60;17.33;;;27.60;24.20;;;;;;10427994;28;20307;-66
2023/07/02 15:28:49;;;;;;;19.23;17.23;;;27.60;24.30;;;;;;10431442;28;20235;-66
2023/07/02 15:33:53;;;;;;;19.37;17.33;;;27.60;24.00;;;;;;10429545;28;20227;-66
2023/07/02 15:38:57;;;;;;;19.57;17.17;;;27.70;23.70;;;;;;10434572;28;20355;-66
2023/07/02 15:44:03;;;;;;;19.70;17.60;;;27.70;24.00;;;;;;10426541;28;20220;-66
2023/07/02 15:49:09;;;;;;;21.03;18.73;;;27.70;23.40;;;;;;10427171;28;20244;-66
2023/07/02 15:54:13;;;;;;;21.37;18.67;;;27.70;22.70;;;;;;10424844;28;20295;-66
2023/07/02 15:59:16;;;;;;;20.53;18.43;;;27.60;23.00;;;;;;10438358;28;20227;-66
2023/07/02 16:04:21;;;;;;;19.80;17.70;;;27.60;24.00;;;;;;10431983;28;20230;-66
2023/07/02 16:09:24;;;;;;;20.97;18.50;;;27.60;23.10;;;;;;10428334;28;20663;-66
2023/07/02 16:14:28;;;;;;;20.93;18.73;;;27.70;23.60;;;;;;10441795;28;20228;-65
2023/07/02 16:19:33;;;;;;;20.13;18.00;;;27.70;23.20;;;;;;10431177;28;20236;-66
2023/07/02 16:24:36;;;;;;;20.80;18.70;;;27.70;22.70;;;;;;10428856;28;20233;-66
2023/07/02 16:29:40;;;;;;;21.70;19.13;;;27.80;22.80;;;;;;10425437;28;20602;-66
2023/07/02 16:34:45;;;;;;;21.30;18.57;;;27.80;22.80;;;;;;10426915;28;20236;-66
2023/07/02 16:39:48;;;;;;;20.33;18.33;;;27.80;22.20;;;;;;10431582;28;20756;-66
2023/07/02 16:44:51;;;;;;;21.33;19.10;;;27.80;23.10;;;;;;10427124;28;20577;-66
2023/07/02 16:50:00;;;;;;;18.90;17.00;;;27.80;23.00;;;;;;10429284;28;20744;-66
2023/07/02 16:55:03;;;;;;;18.90;16.90;;;27.80;21.90;;;;;;10427140;28;20228;-69
2023/07/02 17:00:08;;;;;;;18.47;16.57;;;27.80;22.20;;;;;;10424368;28;20232;-67
2023/07/02 17:05:12;;;;;;;18.67;16.70;;;27.90;22.30;;;;;;10426479;28;20597;-66
2023/07/02 17:10:16;;;;;;;16.57;14.87;;;27.90;21.50;;;;;;10431912;28;20322;-66
2023/07/02 17:15:19;;;;;;;17.13;15.33;;;27.80;21.80;;;;;;10428025;28;20221;-65
2023/07/02 17:20:23;;;;;;;17.27;15.43;;;27.80;21.80;;;;;;10429895;28;20236;-65
2023/07/02 17:25:27;;;;;;;18.13;15.80;;;27.70;21.60;;;;;;10429905;28;20316;-66
2023/07/02 17:30:30;;;;;;;16.23;14.57;;;27.70;22.10;;;;;;10432289;28;20236;-65
2023/07/02 17:35:40;;;;;;;15.83;14.13;;;27.60;22.00;;;;;;10426938;28;20240;-65
2023/07/02 17:40:43;;;;;;;14.77;13.27;;;27.70;20.80;;;;;;10432809;28;20229;-65
2023/07/02 17:45:53;;;;;;;14.77;13.10;;;27.70;21.50;;;;;;10434436;28;20701;-65
2023/07/02 17:50:59;;;;;;;15.23;13.40;;;27.60;20.70;;;;;;10436313;28;20272;-66
2023/07/02 17:56:03;;;;;;;15.57;13.73;;;27.60;20.90;;;;;;10426283;28;20632;-66
2023/07/02 18:01:06;;;;;;;15.40;13.80;;;27.60;21.00;;;;;;10430150;28;20228;-65
2023/07/02 18:06:11;;;;;;;14.27;12.77;;;27.50;21.00;;;;;;10426682;28;20264;-66
2023/07/02 18:11:14;;;;;;;14.90;12.53;;;27.50;20.70;;;;;;10421686;28;20316;-66
2023/07/02 18:16:17;;;;;;;14.20;12.50;;;27.40;21.00;;;;;;10434565;28;20307;-65
2023/07/02 18:21:22;;;;;;;13.60;12.17;;;27.40;21.10;;;;;;10418169;28;20582;-65
2023/07/02 18:26:25;;;;;;;13.53;11.70;;;27.30;20.90;;;;;;10421956;28;20221;-65
2023/07/02 18:31:29;;;;;;;12.90;11.43;;;27.30;21.20;;;;;;10425965;28;20233;-66
2023/07/02 18:36:33;;;;;;;12.67;11.30;;;27.20;21.20;;;;;;10415009;28;20457;-66
2023/07/02 18:41:36;;;;;;;12.87;11.17;;;27.10;21.10;;;;;;10407992;28;20220;-66
2023/07/02 18:46:41;;;;;;;13.57;11.43;;;27.10;21.30;;;;;;10407031;28;20231;-65
2023/07/02 18:51:46;;;;;;;13.33;11.47;;;27.00;21.30;;;;;;10415036;28;20236;-65
2023/07/02 18:56:49;;;;;;;11.90;10.67;;;27.00;21.50;;;;;;10416041;28;20221;-65
2023/07/02 19:01:52;;;;;;;11.73;10.57;;;26.90;21.80;;;;;;10412756;28;20628;-65
2023/07/02 19:06:57;;;;;;;11.67;10.57;;;26.90;22.20;;;;;;10420529;28;20340;-65
2023/07/02 19:12:02;;;;;;;13.30;11.37;;;26.90;22.10;;;;;;10414175;28;20324;-65
2023/07/02 19:17:07;;;;;;;12.73;11.03;;;26.80;22.40;;;;;;10416045;28;20266;-66
2023/07/02 19:22:12;;;;;;;11.90;10.40;;;26.80;22.40;;;;;;10410988;28;20226;-65
2023/07/02 19:27:16;;;;;;;13.67;11.70;;;26.70;22.50;;;;;;10407312;28;20720;-66
2023/07/02 19:32:20;;;;;;;12.90;11.60;;;26.60;22.70;;;;;;10415094;28;20228;-66
2023/07/02 19:37:25;;;;;;;13.13;11.73;;;26.40;22.70;;;;;;10424839;28;20639;-67
2023/07/02 19:42:29;;;;;;;12.10;10.90;;;26.30;22.80;;;;;;10426033;28;20719;-66
2023/07/02 19:47:33;;;;;;;12.47;11.17;;;26.10;22.90;;;;;;10437580;28;20229;-66
2023/07/02 19:52:37;;;;;;;12.70;11.23;;;26.00;23.10;;;;;;10429070;28;20231;-66
2023/07/02 19:57:41;;;;;;;12.40;10.77;;;25.80;23.50;;;;;;10432789;28;20328;-66
2023/07/02 20:02:44;;;;;;;12.83;11.53;;;25.70;23.60;;;;;;10429769;28;20250;-67
2023/07/02 20:07:49;;;;;;;12.80;11.43;;;25.50;23.80;;;;;;10427214;28;20689;-66
2023/07/02 20:12:54;;;;;;;13.97;12.53;;;25.20;24.00;;;;;;10419838;28;20217;-67
2023/07/02 20:17:58;;;;;;;12.67;11.47;;;24.80;24.20;;;;;;10441015;28;20224;-66
2023/07/02 20:23:03;;;;;;;12.77;11.47;;;24.40;24.70;;;;;;10428843;28;20284;-67
2023/07/02 20:28:06;;;;;;;13.27;11.87;;;24.00;25.20;;;;;;10423525;28;20225;-66
2023/07/02 20:33:09;;;;;;;13.00;10.97;;;23.70;25.30;;;;;;10429023;28;20328;-66
2023/07/02 20:38:14;;;;;;;13.87;12.37;;;23.60;25.60;;;;;;10448108;28;20994;-66
2023/07/02 20:43:17;;;;;;;15.03;12.87;;;23.50;26.20;;;;;;10435864;28;20231;-66
2023/07/02 20:48:20;;;;;;;14.67;12.03;;;23.40;26.80;;;;;;10435549;28;20759;-66
2023/07/02 20:53:25;;;;;;;14.43;12.73;;;23.20;26.30;;;;;;10431181;28;20236;-66
2023/07/02 20:58:28;;;;;;;12.80;11.50;;;23.00;27.00;;;;;;10434557;28;20232;-66
2023/07/02 21:03:32;;;;;;;13.47;11.90;;;22.90;26.90;;;;;;10436799;28;20241;-66
2023/07/02 21:08:37;;;;;;;12.70;11.40;;;22.80;27.20;;;;;;10444820;28;20229;-66
2023/07/02 21:13:41;;;;;;;12.17;10.90;;;22.80;27.20;;;;;;10434981;28;20596;-66
2023/07/02 21:18:44;;;;;;;15.00;12.77;;;22.80;27.20;;;;;;10441975;28;20234;-66
2023/07/02 21:23:48;;;;;;;12.47;11.23;;;22.90;27.30;;;;;;10430402;28;20670;-66
2023/07/02 21:28:51;;;;;;;15.57;12.13;;;22.90;27.30;;;;;;10430206;28;20232;-66
2023/07/02 21:33:55;;;;;;;13.67;12.23;;;22.90;27.30;;;;;;10425331;28;20232;-66
2023/07/02 21:38:59;;;;;;;12.13;10.93;;;22.90;27.30;;;;;;10429785;28;20279;-66
2023/07/02 21:44:02;;;;;;;13.93;12.47;;;22.90;27.30;;;;;;10430229;28;20212;-67
2023/07/02 21:49:05;;;;;;;12.13;10.93;;;22.90;27.30;;;;;;10432047;28;20229;-66
2023/07/02 21:54:10;;;;;;;14.30;12.90;;;22.90;27.30;;;;;;10432464;28;20436;-66
2023/07/02 21:59:13;;;;;;;15.20;13.00;;;22.90;28.00;;;;;;10427683;28;20231;-66
2023/07/02 22:04:27;;;;;;;14.10;12.63;;;22.80;27.50;;;;;;10435991;28;20721;-66
2023/07/02 22:09:32;;;;;;;13.60;12.20;;;22.70;27.80;;;;;;10437567;28;20232;-66
2023/07/02 22:14:35;;;;;;;13.90;12.50;;;22.60;28.90;;;;;;10425353;28;20308;-66
2023/07/02 22:19:39;;;;;;;13.47;12.07;;;22.50;28.00;;;;;;10427600;28;20232;-67
2023/07/02 22:24:43;;;;;;;13.43;12.10;;;22.30;28.00;;;;;;10430937;28;20225;-66
2023/07/02 22:29:49;;;;;;;13.50;12.00;;;22.20;28.50;;;;;;10429499;28;20236;-66
2023/07/02 22:34:52;;;;;;;13.87;12.47;;;22.20;28.50;;;;;;10431822;28;20230;-66
2023/07/02 22:39:57;;;;;;;13.37;12.03;;;22.10;28.50;;;;;;10433347;28;20335;-66
2023/07/02 22:45:00;;;;;;;15.00;12.73;;;22.10;28.90;;;;;;10429280;28;20224;-66
2023/07/02 22:50:04;;;;;;;13.50;12.10;;;22.00;28.50;;;;;;10433796;28;20421;-66
2023/07/02 22:55:10;;;;;;;14.97;13.20;;;21.90;28.60;;;;;;10431142;28;20539;-66
2023/07/02 23:00:16;;;;;;;14.50;12.83;;;21.80;29.10;;;;;;10424343;28;20230;-66
2023/07/02 23:05:22;;;;;;;15.40;13.83;;;21.80;29.30;;;;;;10421417;28;20256;-66
2023/07/02 23:10:27;;;;;;;15.80;13.53;;;21.80;29.10;;;;;;10430644;28;20246;-66
2023/07/02 23:15:30;;;;;;;15.70;14.00;;;21.60;29.20;;;;;;10426518;28;20317;-66
2023/07/02 23:20:36;;;;;;;14.70;13.17;;;21.30;29.00;;;;;;10432905;28;20638;-66
2023/07/02 23:25:45;;;;;;;16.00;14.30;;;21.00;29.30;;;;;;10425448;28;20235;-66
2023/07/02 23:30:51;;;;;;;15.17;13.57;;;20.90;30.40;;;;;;10433824;28;20282;-66
2023/07/02 23:35:59;;;;;;;13.43;12.10;;;20.70;29.70;;;;;;10434567;28;20228;-66
2023/07/02 23:41:04;;;;;;;15.17;13.47;;;20.60;30.60;;;;;;10426676;28;20221;-66
2023/07/02 23:46:07;;;;;;;15.20;13.60;;;20.60;30.20;;;;;;10424663;28;20241;-67
2023/07/02 23:51:10;;;;;;;15.17;13.67;;;20.50;30.00;;;;;;10432866;28;20311;-66
2023/07/02 23:56:15;;;;;;;16.37;14.27;;;20.50;30.00;;;;;;10435036;28;20275;-66
